createdAt,value
2019-01-21T00:00:49.685Z,42.40
2019-01-21T00:03:17.785Z,44.73
2019-01-21T00:05:45.711Z,45.40
2019-01-21T00:08:13.630Z,47.63
2019-01-21T00:10:41.646Z,45.90
2019-01-21T00:13:09.498Z,41.87
2019-01-21T00:15:37.544Z,45.87
2019-01-21T00:18:05.584Z,43.47
2019-01-21T00:20:33.556Z,39.83
2019-01-21T00:23:02.484Z,39.47
2019-01-21T00:25:30.498Z,45.30
2019-01-21T00:27:58.533Z,42.50
2019-01-21T00:30:26.991Z,48.93
2019-01-21T00:32:55.235Z,39.48
2019-01-21T00:35:23.193Z,43.38
2019-01-21T00:37:51.147Z,47.20
2019-01-21T00:40:19.086Z,41.97
2019-01-21T00:42:47.237Z,44.50
2019-01-21T00:45:15.095Z,47.00
2019-01-21T00:47:42.980Z,42.55
2019-01-21T00:50:10.946Z,47.35
2019-01-21T00:52:38.859Z,43.92
2019-01-21T00:55:07.047Z,40.07
2019-01-21T00:57:35.050Z,44.55
2019-01-21T01:00:03.857Z,48.07
2019-01-21T01:02:32.108Z,46.30
2019-01-21T01:05:00.225Z,43.00
2019-01-21T01:07:28.161Z,47.98
2019-01-21T01:09:56.057Z,45.50
2019-01-21T01:12:23.988Z,43.00
2019-01-21T01:14:51.981Z,45.30
2019-01-21T01:17:20.022Z,40.40
2019-01-21T01:19:47.868Z,42.40
2019-01-21T01:22:15.870Z,40.52
2019-01-21T01:24:43.874Z,40.77
2019-01-21T01:27:11.845Z,41.70
2019-01-21T01:29:39.812Z,43.77
2019-01-21T01:32:07.879Z,40.45
2019-01-21T01:34:35.740Z,41.43
2019-01-21T01:37:03.616Z,41.43
2019-01-21T01:39:31.556Z,45.85
2019-01-21T01:41:59.421Z,37.37
2019-01-21T01:44:27.578Z,38.63
2019-01-21T01:46:55.537Z,40.23
2019-01-21T01:49:23.581Z,44.77
2019-01-21T01:51:51.594Z,42.47
2019-01-21T01:54:19.472Z,38.65
2019-01-21T01:56:47.360Z,42.70
2019-01-21T01:59:15.480Z,42.60
2019-01-21T02:01:43.498Z,40.38
2019-01-21T02:04:11.357Z,43.20
2019-01-21T02:06:39.274Z,41.20
2019-01-21T02:09:08.186Z,41.65
2019-01-21T02:11:36.890Z,39.70
2019-01-21T02:14:05.288Z,38.60
2019-01-21T02:16:33.127Z,45.38
2019-01-21T02:19:01.037Z,38.33
2019-01-21T02:21:29.767Z,44.73
2019-01-21T02:24:02.534Z,43.42
2019-01-21T02:26:30.353Z,39.53
2019-01-21T02:29:26.231Z,44.13
2019-01-21T02:32:15.942Z,38.92
2019-01-21T02:34:55.774Z,44.80
2019-01-21T02:37:29.620Z,42.75
2019-01-21T02:40:16.858Z,40.00
2019-01-21T02:42:57.661Z,39.50
2019-01-21T02:45:32.996Z,51.30
2019-01-21T02:48:26.092Z,40.07
2019-01-21T02:51:18.855Z,40.98
2019-01-21T02:53:57.054Z,42.25
2019-01-21T02:56:42.811Z,43.40
2019-01-21T02:59:39.445Z,39.95
2019-01-21T03:02:35.367Z,47.25
2019-01-21T03:05:20.896Z,39.53
2019-01-21T03:08:11.066Z,43.48
2019-01-21T03:11:03.914Z,47.58
2019-01-21T03:13:53.723Z,40.78
2019-01-21T03:16:29.086Z,39.03
2019-01-21T03:19:14.817Z,46.63
2019-01-21T03:22:10.739Z,41.60
2019-01-21T03:24:57.733Z,43.48
2019-01-21T03:27:53.690Z,37.48
2019-01-21T03:30:40.726Z,42.15
2019-01-21T03:33:43.384Z,43.08
2019-01-21T03:36:33.402Z,42.70
2019-01-21T03:39:20.391Z,40.28
2019-01-21T03:41:55.304Z,40.50
2019-01-21T03:44:57.107Z,41.77
2019-01-21T03:47:40.074Z,43.92
2019-01-21T03:50:27.107Z,45.15
2019-01-21T03:52:59.591Z,42.00
2019-01-21T03:55:27.710Z,39.98
2019-01-21T03:58:29.705Z,41.37
2019-01-21T04:01:06.563Z,46.63
2019-01-21T04:03:43.785Z,42.80
2019-01-21T04:06:29.447Z,42.70
2019-01-21T04:09:19.225Z,44.18
2019-01-21T04:11:54.783Z,38.15
2019-01-21T04:14:28.018Z,39.73
2019-01-21T04:17:14.631Z,47.53
2019-01-21T04:19:46.703Z,42.30
2019-01-21T04:22:32.400Z,38.98
2019-01-21T04:25:18.141Z,34.67
2019-01-21T04:28:17.193Z,39.58
2019-01-21T04:30:59.775Z,41.70
2019-01-21T04:34:01.880Z,41.68
2019-01-21T04:36:35.969Z,38.73
2019-01-21T04:39:17.447Z,41.30
2019-01-21T04:42:06.856Z,38.55
2019-01-21T04:44:54.263Z,41.45
2019-01-21T04:47:47.085Z,42.73
2019-01-21T04:50:27.050Z,46.65
2019-01-21T04:53:29.205Z,40.60
2019-01-21T04:56:19.395Z,43.20
2019-01-21T04:59:01.890Z,45.30
2019-01-21T05:01:49.293Z,41.63
2019-01-21T05:04:35.084Z,39.45
2019-01-21T05:07:25.134Z,40.10
2019-01-21T05:10:12.292Z,38.70
2019-01-21T05:12:55.051Z,39.40
2019-01-21T05:15:43.347Z,38.48
2019-01-21T05:18:26.611Z,44.27
2019-01-21T05:21:19.980Z,43.33
2019-01-21T05:24:15.800Z,39.00
2019-01-21T05:26:57.197Z,41.73
2019-01-21T05:29:33.511Z,42.65
2019-01-21T05:32:06.875Z,37.90
2019-01-21T05:34:45.106Z,39.50
2019-01-21T05:37:32.211Z,42.58
2019-01-21T05:40:04.722Z,37.23
2019-01-21T05:42:54.735Z,41.28
2019-01-21T05:45:46.260Z,36.53
2019-01-21T05:48:48.841Z,35.35
2019-01-21T05:51:37.169Z,39.38
2019-01-21T05:54:22.791Z,42.58
2019-01-21T05:57:08.195Z,46.05
2019-01-21T05:59:51.898Z,42.48
2019-01-21T06:02:41.942Z,40.80
2019-01-21T06:05:23.283Z,37.55
2019-01-21T06:08:09.534Z,39.33
2019-01-21T06:10:59.627Z,42.27
2019-01-21T06:13:42.478Z,42.58
2019-01-21T06:16:41.734Z,37.40
2019-01-21T06:19:26.585Z,40.85
2019-01-21T06:22:12.116Z,39.03
2019-01-21T06:24:52.282Z,34.88
2019-01-21T06:27:48.277Z,41.92
2019-01-21T06:30:21.162Z,37.15
2019-01-21T06:33:17.097Z,41.42
2019-01-21T06:35:55.151Z,42.62
2019-01-21T06:38:30.706Z,45.12
2019-01-21T06:41:13.285Z,45.85
2019-01-21T06:44:09.706Z,43.15
2019-01-21T06:46:59.711Z,41.35
2019-01-21T06:49:45.372Z,41.20
2019-01-21T06:52:50.361Z,41.60
2019-01-21T06:55:40.097Z,44.45
2019-01-21T06:58:30.376Z,43.87
2019-01-21T07:01:18.740Z,42.70
2019-01-21T07:04:08.873Z,39.20
2019-01-21T07:06:45.578Z,40.63
2019-01-21T07:09:24.085Z,43.98
2019-01-21T07:12:13.861Z,42.67
2019-01-21T07:15:13.025Z,40.65
2019-01-21T07:18:12.115Z,42.30
2019-01-21T07:20:50.586Z,42.67
2019-01-21T07:23:44.093Z,43.45
2019-01-21T07:26:29.777Z,45.90
2019-01-21T07:29:19.532Z,43.68
2019-01-21T07:32:00.607Z,40.38
2019-01-21T07:34:36.590Z,35.55
2019-01-21T07:37:23.195Z,46.70
2019-01-21T07:40:08.756Z,42.70
2019-01-21T07:42:44.426Z,40.15
2019-01-21T07:45:31.408Z,44.58
2019-01-21T07:48:17.059Z,39.10
2019-01-21T07:51:03.254Z,36.48
2019-01-21T09:53:01.482Z,30.97
2019-01-21T09:55:29.591Z,33.90
2019-01-21T09:58:05.217Z,28.30
2019-01-21T10:00:33.214Z,28.20
2019-01-21T10:03:01.961Z,28.97
2019-01-21T10:05:31.469Z,29.07
2019-01-21T10:08:18.446Z,28.97
2019-01-21T10:11:03.185Z,26.97
2019-01-21T10:13:55.427Z,27.53
2019-01-21T10:16:36.810Z,26.10
2019-01-21T10:19:22.154Z,28.27
2019-01-21T10:22:09.158Z,29.60
2019-01-21T10:24:51.178Z,24.63
2019-01-21T10:27:33.978Z,29.57
2019-01-21T10:30:06.446Z,26.13
2019-01-21T10:32:53.504Z,28.73
2019-01-21T10:35:28.847Z,25.93
2019-01-21T10:38:05.282Z,25.23
2019-01-21T10:40:52.345Z,25.60
2019-01-21T10:43:30.526Z,26.30
2019-01-21T10:46:21.099Z,25.13
2019-01-21T10:48:56.368Z,29.03
2019-01-21T10:51:28.734Z,25.30
2019-01-21T10:54:21.724Z,25.57
2019-01-21T10:56:59.378Z,26.03
2019-01-21T10:59:48.872Z,27.43
2019-01-21T11:02:34.348Z,27.00
2019-01-21T11:05:15.108Z,25.97
2019-01-21T11:07:49.159Z,25.97
2019-01-21T11:10:23.566Z,26.30
2019-01-21T11:12:55.198Z,24.80
2019-01-21T11:15:25.324Z,25.07
2019-01-21T11:18:15.099Z,27.17
2019-01-21T11:21:05.159Z,27.20
2019-01-21T11:23:50.796Z,25.73
2019-01-21T11:26:39.768Z,26.90
2019-01-21T11:29:14.331Z,25.20
2019-01-21T11:32:04.298Z,27.50
2019-01-21T11:34:43.880Z,25.27
2019-01-21T11:37:29.230Z,25.43
2019-01-21T11:40:14.641Z,25.20
2019-01-21T11:43:07.707Z,27.83
2019-01-21T11:45:54.774Z,27.03
2019-01-21T11:48:43.258Z,27.47
2019-01-21T11:51:28.004Z,30.77
2019-01-21T11:54:13.913Z,26.30
2019-01-21T11:57:18.889Z,31.60
2019-01-21T12:00:11.727Z,33.20
2019-01-21T12:03:01.486Z,31.50
2019-01-21T12:05:51.199Z,30.33
2019-01-21T12:08:36.568Z,32.30
2019-01-21T12:11:18.946Z,33.90
2019-01-21T12:14:05.972Z,30.87
2019-01-21T12:16:40.424Z,31.10
2019-01-21T12:19:15.119Z,32.03
2019-01-21T12:21:55.353Z,28.87
2019-01-21T12:24:28.038Z,37.00
2019-01-21T12:27:20.935Z,30.67
2019-01-21T12:30:07.928Z,30.17
2019-01-21T12:33:00.908Z,32.97
2019-01-21T14:21:29.411Z,26.50
2019-01-21T14:24:11.278Z,37.53
2019-01-21T14:26:58.712Z,32.30
2019-01-21T14:29:40.919Z,32.03
2019-01-21T14:32:22.756Z,35.40
2019-01-21T14:35:19.240Z,29.57
2019-01-21T14:38:04.783Z,27.73
2019-01-21T14:40:46.054Z,31.60
2019-01-21T14:43:19.574Z,32.90
2019-01-21T14:46:11.009Z,29.90
2019-01-21T14:48:52.093Z,33.17
2019-01-21T14:51:42.087Z,36.17
2019-01-21T16:44:03.800Z,34.83
2019-01-21T16:46:32.008Z,34.50
2019-01-21T16:49:00.405Z,39.07
2019-01-21T16:51:28.599Z,32.87
2019-01-21T16:53:57.178Z,33.20
2019-01-21T16:56:25.366Z,35.40
2019-01-21T16:58:53.474Z,35.70
2019-01-21T17:01:21.518Z,36.37
2019-01-21T17:03:49.725Z,34.00
2019-01-21T17:06:17.978Z,36.97
2019-01-21T17:08:46.090Z,34.40
2019-01-21T17:11:14.046Z,35.70
2019-01-21T17:13:42.089Z,38.40
2019-01-21T17:16:10.483Z,32.23
2019-01-21T17:18:38.837Z,36.60
2019-01-21T17:21:07.387Z,34.93
2019-01-21T17:23:38.528Z,36.03
2019-01-21T17:26:11.519Z,38.80
2019-01-21T17:28:39.880Z,37.03
2019-01-21T17:31:11.319Z,34.73
2019-01-21T17:33:39.744Z,37.23
2019-01-21T17:36:13.329Z,37.20
2019-01-21T17:38:41.583Z,40.23
2019-01-21T17:41:12.009Z,38.30
2019-01-21T17:43:40.369Z,37.27
2019-01-21T17:46:08.394Z,35.53
2019-01-21T17:48:36.515Z,37.17
2019-01-21T17:51:07.570Z,37.97
2019-01-21T17:53:35.760Z,40.27
2019-01-21T17:56:04.260Z,42.43
2019-01-21T17:58:32.648Z,36.97
2019-01-21T18:01:00.703Z,36.43
2019-01-21T18:03:28.843Z,38.53
2019-01-21T18:05:57.377Z,36.60
2019-01-21T18:08:30.027Z,37.53
2019-01-21T18:10:58.428Z,43.10
2019-01-21T18:13:26.374Z,38.37
2019-01-21T18:15:54.287Z,36.67
2019-01-21T18:18:22.179Z,42.87
2019-01-21T18:20:54.318Z,38.80
2019-01-21T18:23:22.255Z,40.43
2019-01-21T18:25:50.169Z,40.97
2019-01-21T18:28:18.023Z,46.47
2019-01-21T18:30:46.085Z,40.00
2019-01-21T18:33:14.303Z,41.23
2019-01-21T18:35:42.200Z,36.57
2019-01-21T18:38:10.172Z,38.20
2019-01-21T18:40:38.128Z,37.43
2019-01-21T18:43:06.017Z,38.57
2019-01-21T18:45:34.016Z,41.57
2019-01-21T18:48:01.890Z,39.90
2019-01-21T18:50:29.764Z,40.57
2019-01-21T18:52:57.643Z,41.03
2019-01-21T18:55:25.783Z,41.23
2019-01-21T18:57:55.941Z,42.07
2019-01-21T19:00:24.034Z,33.53
2019-01-21T19:02:51.965Z,40.93
2019-01-21T19:05:19.968Z,43.20
2019-01-21T19:07:47.857Z,48.50
2019-01-21T19:10:15.900Z,43.70
2019-01-21T19:12:43.862Z,48.40
2019-01-21T19:15:16.599Z,43.13
2019-01-21T19:17:44.748Z,42.37
2019-01-21T19:20:13.522Z,46.13
2019-01-21T19:22:41.752Z,48.23
2019-01-21T19:25:10.012Z,43.83
2019-01-21T19:27:38.284Z,52.80
2019-01-21T19:30:07.404Z,46.67
2019-01-21T19:32:35.987Z,44.00
2019-01-21T19:35:04.981Z,46.40
2019-01-21T19:37:33.430Z,44.30
2019-01-21T19:40:01.643Z,43.77
2019-01-21T19:42:29.906Z,43.10
2019-01-21T19:44:58.022Z,44.23
2019-01-21T19:47:26.193Z,48.30
2019-01-21T19:49:54.484Z,44.47
2019-01-21T19:52:22.465Z,47.23
2019-01-21T19:54:50.397Z,48.30
2019-01-21T19:57:18.371Z,41.90
2019-01-21T19:59:46.226Z,44.60
2019-01-21T20:02:14.255Z,52.20
2019-01-21T20:17:08.297Z,46.87
2019-01-21T20:19:36.487Z,49.13
2019-01-21T20:22:07.995Z,43.33
2019-01-21T20:45:19.140Z,49.33
2019-01-21T21:00:38.780Z,48.87
2019-01-21T21:03:07.108Z,45.10
2019-01-21T21:51:05.472Z,44.03
2019-01-21T22:02:44.755Z,47.13
2019-01-21T22:05:12.949Z,47.43
2019-01-21T22:11:55.334Z,47.53
2019-01-21T22:15:00.705Z,49.95
